createdAt,value
2019-03-03T00:02:58.787Z,98.90
2019-03-03T00:08:03.619Z,98.80
2019-03-03T00:13:08.453Z,98.90
2019-03-03T00:18:13.288Z,98.70
2019-03-03T00:23:18.432Z,98.80
2019-03-03T00:28:23.293Z,98.70
2019-03-03T00:33:28.161Z,98.70
2019-03-03T00:38:34.665Z,98.60
2019-03-03T00:43:50.313Z,98.50
2019-03-03T00:49:11.810Z,98.40
2019-03-03T00:54:20.823Z,98.30
2019-03-03T00:59:36.081Z,98.10
2019-03-03T01:04:51.630Z,97.90
2019-03-03T01:10:10.146Z,97.90
2019-03-03T01:15:22.529Z,97.90
2019-03-03T01:20:43.878Z,97.90
2019-03-03T01:25:48.685Z,97.90
2019-03-03T01:30:53.549Z,97.80
2019-03-03T01:35:58.346Z,97.70
2019-03-03T01:41:03.133Z,97.70
2019-03-03T01:46:07.990Z,97.60
2019-03-03T01:51:12.873Z,97.60
2019-03-03T01:56:17.577Z,97.60
2019-03-03T02:01:22.571Z,97.50
2019-03-03T02:06:27.447Z,97.40
2019-03-03T02:11:32.737Z,97.30
2019-03-03T02:16:37.769Z,97.30
2019-03-03T02:21:42.817Z,97.10
2019-03-03T02:26:47.776Z,97.10
2019-03-03T02:31:53.654Z,97.40
2019-03-03T02:36:58.462Z,97.80
2019-03-03T02:42:03.421Z,97.90
2019-03-03T02:47:08.410Z,97.90
2019-03-03T02:52:13.760Z,98.10
2019-03-03T02:57:19.588Z,98.10
2019-03-03T03:02:26.807Z,98.00
2019-03-03T03:07:33.297Z,98.00
2019-03-03T03:12:45.972Z,98.10
2019-03-03T03:17:58.389Z,98.30
2019-03-03T03:23:07.685Z,98.30
2019-03-03T03:28:30.252Z,98.30
2019-03-03T03:33:36.750Z,98.50
2019-03-03T03:38:43.115Z,98.50
2019-03-03T03:43:58.551Z,98.90
2019-03-03T03:49:07.775Z,99.00
2019-03-03T03:54:20.036Z,99.10
2019-03-03T03:59:29.216Z,99.10
2019-03-03T04:04:47.846Z,99.40
2019-03-03T04:09:54.932Z,99.40
2019-03-03T04:15:02.025Z,99.20
2019-03-03T04:20:09.716Z,99.20
2019-03-03T04:25:25.110Z,99.30
2019-03-03T04:30:31.477Z,99.50
2019-03-03T04:35:49.873Z,99.70
2019-03-03T04:40:56.223Z,99.90
2019-03-03T04:46:02.728Z,99.90
2019-03-03T04:51:14.935Z,99.90
2019-03-03T04:56:30.618Z,99.90
2019-03-03T05:01:53.314Z,99.90
2019-03-03T05:06:59.800Z,99.80
2019-03-03T05:12:14.423Z,99.80
2019-03-03T05:17:37.183Z,99.80
2019-03-03T05:22:42.030Z,99.90
2019-03-03T05:27:46.745Z,99.90
2019-03-03T05:32:51.501Z,99.90
2019-03-03T05:37:56.323Z,99.90
2019-03-03T05:43:01.018Z,99.90
2019-03-03T05:48:06.507Z,99.90
2019-03-03T05:53:11.345Z,99.90
2019-03-03T05:58:16.152Z,99.90
2019-03-03T06:03:20.853Z,99.90
2019-03-03T06:08:25.686Z,99.90
2019-03-03T06:13:30.438Z,99.90
2019-03-03T06:18:35.587Z,99.90
2019-03-03T06:23:40.445Z,99.90
2019-03-03T06:28:45.309Z,99.90
2019-03-03T06:33:50.099Z,99.90
2019-03-03T06:38:54.888Z,99.40
2019-03-03T06:44:00.275Z,99.10
2019-03-03T06:49:05.141Z,98.50
2019-03-03T06:54:09.921Z,98.40
2019-03-03T06:59:14.732Z,98.00
2019-03-03T07:04:19.514Z,97.90
2019-03-03T07:09:24.376Z,97.70
2019-03-03T07:14:29.956Z,97.30
2019-03-03T07:19:34.829Z,97.00
2019-03-03T07:24:39.673Z,96.90
2019-03-03T07:29:44.527Z,96.80
2019-03-03T07:34:49.376Z,96.70
2019-03-03T07:39:54.242Z,96.90
2019-03-03T07:44:59.008Z,96.80
2019-03-03T07:50:04.468Z,96.80
2019-03-03T07:55:10.626Z,96.90
2019-03-03T08:00:16.678Z,96.90
2019-03-03T08:05:22.587Z,97.00
2019-03-03T08:10:28.909Z,96.50
2019-03-03T08:15:34.577Z,96.10
2019-03-03T08:20:39.458Z,95.40
2019-03-03T08:25:44.493Z,94.90
2019-03-03T08:30:49.333Z,95.00
2019-03-03T08:35:54.113Z,95.20
2019-03-03T08:40:58.910Z,95.30
2019-03-03T08:46:11.400Z,95.60
2019-03-03T08:51:17.808Z,95.90
2019-03-03T08:56:24.334Z,96.20
2019-03-03T09:01:36.810Z,96.20
2019-03-03T09:06:52.206Z,96.60
2019-03-03T09:12:01.021Z,96.90
2019-03-03T09:17:16.536Z,97.00
2019-03-03T09:22:28.852Z,97.30
2019-03-03T09:27:35.270Z,97.60
2019-03-03T09:32:50.971Z,97.80
2019-03-03T09:37:57.649Z,98.20
2019-03-03T09:43:06.907Z,98.20
2019-03-03T09:48:13.412Z,98.30
2019-03-03T09:53:19.901Z,98.20
2019-03-03T09:58:38.215Z,98.00
2019-03-03T10:03:56.574Z,98.10
2019-03-03T10:09:11.981Z,97.90
2019-03-03T10:14:21.489Z,97.70
2019-03-03T10:19:35.793Z,97.80
2019-03-03T10:24:42.212Z,97.60
2019-03-03T10:29:57.809Z,97.10
2019-03-03T10:35:04.320Z,96.90
2019-03-03T10:40:23.376Z,96.90
2019-03-03T10:45:45.920Z,97.50
2019-03-03T10:50:52.422Z,97.50
2019-03-03T10:56:01.805Z,97.20
2019-03-03T11:01:08.415Z,96.60
2019-03-03T11:06:26.532Z,96.70
2019-03-03T11:11:33.161Z,96.60
2019-03-03T11:16:39.683Z,96.20
2019-03-03T11:21:58.034Z,96.00
2019-03-03T11:27:16.432Z,96.10
2019-03-03T11:32:35.144Z,95.80
2019-03-03T11:37:44.285Z,95.70
2019-03-03T11:42:50.729Z,95.80
2019-03-03T11:48:04.073Z,95.70
2019-03-03T11:53:13.872Z,95.50
2019-03-03T11:58:36.441Z,95.60
2019-03-03T12:03:51.927Z,95.80
2019-03-03T12:09:07.340Z,97.20
2019-03-03T12:14:13.861Z,97.60
2019-03-03T12:19:22.125Z,98.20
2019-03-03T12:24:37.495Z,98.90
2019-03-03T12:29:52.984Z,99.10
2019-03-03T12:34:59.352Z,99.70
2019-03-03T12:40:20.617Z,99.90
2019-03-03T12:45:39.263Z,99.90
2019-03-03T12:50:54.599Z,99.90
2019-03-03T12:56:03.755Z,99.90
2019-03-03T13:01:13.329Z,99.90
2019-03-03T13:06:24.290Z,99.90
2019-03-03T13:11:28.068Z,99.90
2019-03-03T13:16:34.608Z,99.90
2019-03-03T13:21:47.856Z,99.90
2019-03-03T13:26:54.411Z,99.90
2019-03-03T13:32:04.190Z,99.90
2019-03-03T13:37:10.652Z,99.90
2019-03-03T13:42:17.089Z,99.90
2019-03-03T13:47:21.948Z,99.90
2019-03-03T13:52:26.829Z,99.90
2019-03-03T13:57:31.676Z,99.90
2019-03-03T14:02:36.526Z,99.90
2019-03-03T14:07:41.479Z,99.90
2019-03-03T14:12:46.425Z,99.90
2019-03-03T14:17:51.984Z,99.90
2019-03-03T14:22:56.856Z,99.90
2019-03-03T14:28:01.807Z,99.90
2019-03-03T14:33:06.736Z,99.90
2019-03-03T14:38:11.588Z,99.90
2019-03-03T14:43:16.440Z,99.90
2019-03-03T14:48:21.306Z,99.90
2019-03-03T14:53:26.198Z,99.90
2019-03-03T14:58:31.049Z,99.90
2019-03-03T15:03:35.916Z,99.90
2019-03-03T15:08:40.781Z,99.90
2019-03-03T15:13:45.697Z,99.90
2019-03-03T15:18:50.569Z,99.90
2019-03-03T15:23:55.500Z,99.90
2019-03-03T15:29:00.402Z,99.90
2019-03-03T15:34:05.365Z,99.90
2019-03-03T15:39:10.200Z,99.90
2019-03-03T15:44:15.184Z,99.90
2019-03-03T15:49:20.036Z,99.90
2019-03-03T15:54:25.679Z,99.90
2019-03-03T15:59:30.477Z,99.90
2019-03-03T16:04:35.287Z,99.90
2019-03-03T16:09:40.090Z,99.90
2019-03-03T16:14:44.943Z,99.90
2019-03-03T16:19:49.805Z,99.90
2019-03-03T16:24:55.517Z,99.90
2019-03-03T16:30:00.477Z,99.90
2019-03-03T16:35:06.820Z,99.90
2019-03-03T16:40:14.549Z,99.90
2019-03-03T16:45:19.706Z,99.90
2019-03-03T16:50:24.864Z,99.90
2019-03-03T16:55:29.717Z,99.90
2019-03-03T17:00:34.590Z,99.90
2019-03-03T17:05:39.455Z,99.90
2019-03-03T17:10:44.292Z,99.90
2019-03-03T17:15:49.157Z,99.90
2019-03-03T17:20:54.001Z,99.90
2019-03-03T17:26:00.208Z,99.90
2019-03-03T17:31:05.143Z,99.90
2019-03-03T17:36:09.983Z,99.90
2019-03-03T17:41:14.844Z,99.90
2019-03-03T17:46:20.281Z,99.90
2019-03-03T17:51:25.145Z,99.90
2019-03-03T17:56:30.000Z,99.90
2019-03-03T18:01:34.870Z,99.90
2019-03-03T18:06:39.662Z,99.90
2019-03-03T18:11:44.875Z,99.90
2019-03-03T18:16:49.743Z,99.90
2019-03-03T18:21:54.610Z,99.90
2019-03-03T18:27:00.127Z,99.90
2019-03-03T18:37:59.890Z,99.90
2019-03-03T18:43:04.789Z,99.90
2019-03-03T18:48:09.572Z,99.90
2019-03-03T18:53:14.437Z,99.90
2019-03-03T18:58:19.305Z,99.90
2019-03-03T19:03:24.161Z,99.90
2019-03-03T19:08:30.419Z,99.90
2019-03-03T19:13:35.663Z,99.90
2019-03-03T19:18:40.730Z,99.90
2019-03-03T19:23:45.517Z,99.90
2019-03-03T19:28:50.911Z,99.90
2019-03-03T19:34:16.842Z,99.90
2019-03-03T19:39:25.779Z,99.90
2019-03-03T19:44:30.944Z,99.90
2019-03-03T19:49:35.742Z,99.90
2019-03-03T19:54:40.609Z,99.90
2019-03-03T19:59:45.432Z,99.90
2019-03-03T20:04:50.292Z,99.90
2019-03-03T20:09:56.958Z,99.90
2019-03-03T20:15:01.831Z,99.90
2019-03-03T20:20:09.636Z,99.90
2019-03-03T20:25:14.706Z,99.90
2019-03-03T20:30:22.489Z,99.90
2019-03-03T20:35:27.367Z,99.90
2019-03-03T20:40:32.224Z,99.90
2019-03-03T20:45:37.121Z,99.90
2019-03-03T20:50:41.981Z,99.90
2019-03-03T20:55:46.848Z,99.90
2019-03-03T21:00:51.664Z,99.90
2019-03-03T21:05:56.457Z,99.90
2019-03-03T21:11:01.305Z,99.90
2019-03-03T21:16:06.099Z,99.90
2019-03-03T21:21:10.891Z,99.90
2019-03-03T21:26:15.712Z,99.90
2019-03-03T21:31:20.591Z,99.90
2019-03-03T21:36:25.513Z,99.90
2019-03-03T21:41:30.369Z,99.90
2019-03-03T21:46:35.187Z,99.90
2019-03-03T21:51:39.977Z,99.90
2019-03-03T21:56:44.837Z,99.90
2019-03-03T22:01:49.566Z,99.90
2019-03-03T22:06:54.434Z,99.90
2019-03-03T22:11:59.221Z,99.90
2019-03-03T22:17:04.076Z,99.90
2019-03-03T22:22:08.949Z,99.90
2019-03-03T22:27:13.826Z,99.90
2019-03-03T22:32:19.237Z,99.90
2019-03-03T22:37:24.255Z,99.90
2019-03-03T22:42:29.112Z,99.90
2019-03-03T22:47:33.905Z,99.90
2019-03-03T22:52:38.755Z,99.90
2019-03-03T22:57:43.602Z,99.90
2019-03-03T23:02:48.516Z,99.90
2019-03-03T23:07:56.285Z,99.90
2019-03-03T23:13:13.006Z,99.90
2019-03-03T23:18:23.476Z,99.90
2019-03-03T23:23:49.153Z,99.90
2019-03-03T23:28:53.948Z,99.90
2019-03-03T23:33:59.529Z,99.90
2019-03-03T23:39:06.385Z,99.90
2019-03-03T23:44:11.654Z,99.90
2019-03-03T23:49:16.504Z,99.90
2019-03-03T23:54:21.361Z,99.90
2019-03-03T23:59:26.150Z,99.90
